sensor_id;sensor_type;location;lat;lon;timestamp;pressure;altitude;pressure_sealevel;temperature;humidity
28606;BME280;46498;49.968;7.754;2023-12-29T00:03:57;-18501.00;;;6.99;100.00
28606;BME280;46498;49.968;7.754;2023-12-29T00:08:58;-18498.00;;;6.93;100.00
28606;BME280;46498;49.968;7.754;2023-12-29T00:14:01;-18498.00;;;6.92;100.00
28606;BME280;46498;49.968;7.754;2023-12-29T00:19:02;-18499.00;;;6.94;100.00
28606;BME280;46498;49.968;7.754;2023-12-29T00:24:04;-18498.00;;;6.90;100.00
28606;BME280;46498;49.968;7.754;2023-12-29T00:29:05;-18498.00;;;6.92;100.00
28606;BME280;46498;49.968;7.754;2023-12-29T00:34:07;-18498.00;;;6.91;100.00
28606;BME280;46498;49.968;7.754;2023-12-29T00:39:08;-18498.00;;;6.91;100.00
28606;BME280;46498;49.968;7.754;2023-12-29T00:44:09;-18496.00;;;6.85;100.00
28606;BME280;46498;49.968;7.754;2023-12-29T00:49:10;-18496.00;;;6.86;100.00
28606;BME280;46498;49.968;7.754;2023-12-29T00:54:11;-18496.00;;;6.86;100.00
28606;BME280;46498;49.968;7.754;2023-12-29T00:59:12;-18495.00;;;6.82;100.00
28606;BME280;46498;49.968;7.754;2023-12-29T01:04:13;-18495.00;;;6.84;100.00
28606;BME280;46498;49.968;7.754;2023-12-29T01:09:15;-18497.00;;;6.89;100.00
28606;BME280;46498;49.968;7.754;2023-12-29T01:14:16;-18496.00;;;6.86;100.00
28606;BME280;46498;49.968;7.754;2023-12-29T01:19:16;-18498.00;;;6.92;100.00
28606;BME280;46498;49.968;7.754;2023-12-29T01:24:18;-18496.00;;;6.86;100.00
28606;BME280;46498;49.968;7.754;2023-12-29T01:29:26;-18498.00;;;6.91;100.00
28606;BME280;46498;49.968;7.754;2023-12-29T01:34:27;-18503.00;;;7.08;100.00
28606;BME280;46498;49.968;7.754;2023-12-29T01:39:33;-18506.00;;;7.16;100.00
28606;BME280;46498;49.968;7.754;2023-12-29T01:44:35;-18505.00;;;7.12;100.00
28606;BME280;46498;49.968;7.754;2023-12-29T01:49:37;-18504.00;;;7.12;100.00
28606;BME280;46498;49.968;7.754;2023-12-29T01:54:39;-18506.00;;;7.17;100.00
28606;BME280;46498;49.968;7.754;2023-12-29T01:59:41;-18501.00;;;7.02;100.00
28606;BME280;46498;49.968;7.754;2023-12-29T02:04:45;-18502.00;;;7.04;100.00
28606;BME280;46498;49.968;7.754;2023-12-29T02:09:46;-18502.00;;;7.04;100.00
28606;BME280;46498;49.968;7.754;2023-12-29T02:14:47;-18502.00;;;7.03;100.00
28606;BME280;46498;49.968;7.754;2023-12-29T02:19:49;-18500.00;;;6.97;100.00
28606;BME280;46498;49.968;7.754;2023-12-29T02:24:51;-18498.00;;;6.91;100.00
28606;BME280;46498;49.968;7.754;2023-12-29T02:30:08;-18495.00;;;6.81;100.00
28606;BME280;46498;49.968;7.754;2023-12-29T02:35:13;-18495.00;;;6.82;100.00
28606;BME280;46498;49.968;7.754;2023-12-29T02:40:15;-18495.00;;;6.82;100.00
28606;BME280;46498;49.968;7.754;2023-12-29T02:45:17;-18495.00;;;6.82;100.00
28606;BME280;46498;49.968;7.754;2023-12-29T02:50:18;-18494.00;;;6.79;100.00
28606;BME280;46498;49.968;7.754;2023-12-29T02:55:19;-18498.00;;;6.92;100.00
28606;BME280;46498;49.968;7.754;2023-12-29T03:00:20;-18497.00;;;6.89;100.00
28606;BME280;46498;49.968;7.754;2023-12-29T03:05:21;-18497.00;;;6.89;100.00
28606;BME280;46498;49.968;7.754;2023-12-29T03:10:23;-18494.00;;;6.78;100.00
28606;BME280;46498;49.968;7.754;2023-12-29T03:15:24;-18493.00;;;6.75;100.00
28606;BME280;46498;49.968;7.754;2023-12-29T03:20:25;-18487.00;;;6.57;100.00
28606;BME280;46498;49.968;7.754;2023-12-29T03:25:29;-18487.00;;;6.58;100.00
28606;BME280;46498;49.968;7.754;2023-12-29T03:30:29;-18484.00;;;6.49;100.00
28606;BME280;46498;49.968;7.754;2023-12-29T03:35:31;-18484.00;;;6.47;100.00
28606;BME280;46498;49.968;7.754;2023-12-29T03:40:31;-18481.00;;;6.39;100.00
28606;BME280;46498;49.968;7.754;2023-12-29T03:45:33;-18482.00;;;6.42;100.00
28606;BME280;46498;49.968;7.754;2023-12-29T03:50:34;-18482.00;;;6.40;100.00
28606;BME280;46498;49.968;7.754;2023-12-29T03:55:34;-18481.00;;;6.38;100.00
28606;BME280;46498;49.968;7.754;2023-12-29T04:00:36;-18480.00;;;6.36;100.00
28606;BME280;46498;49.968;7.754;2023-12-29T04:05:37;-18481.00;;;6.39;100.00
28606;BME280;46498;49.968;7.754;2023-12-29T04:10:38;-18479.00;;;6.32;100.00
28606;BME280;46498;49.968;7.754;2023-12-29T04:15:39;-18476.00;;;6.22;100.00
28606;BME280;46498;49.968;7.754;2023-12-29T04:20:41;-18476.00;;;6.22;100.00
28606;BME280;46498;49.968;7.754;2023-12-29T04:25:42;-18473.00;;;6.13;100.00
28606;BME280;46498;49.968;7.754;2023-12-29T04:30:43;-18475.00;;;6.18;100.00
28606;BME280;46498;49.968;7.754;2023-12-29T04:35:44;-18474.00;;;6.16;100.00
28606;BME280;46498;49.968;7.754;2023-12-29T04:40:46;-18475.00;;;6.18;100.00
28606;BME280;46498;49.968;7.754;2023-12-29T04:45:50;-18475.00;;;6.19;100.00
28606;BME280;46498;49.968;7.754;2023-12-29T04:50:51;-18477.00;;;6.25;100.00
28606;BME280;46498;49.968;7.754;2023-12-29T04:55:52;-18476.00;;;6.23;100.00
28606;BME280;46498;49.968;7.754;2023-12-29T05:00:53;-18478.00;;;6.29;100.00
28606;BME280;46498;49.968;7.754;2023-12-29T05:05:54;-18481.00;;;6.37;100.00
28606;BME280;46498;49.968;7.754;2023-12-29T05:10:55;-18481.00;;;6.38;100.00
28606;BME280;46498;49.968;7.754;2023-12-29T05:15:56;-18484.00;;;6.48;100.00
28606;BME280;46498;49.968;7.754;2023-12-29T05:20:57;-18482.00;;;6.40;100.00
28606;BME280;46498;49.968;7.754;2023-12-29T05:25:58;-18486.00;;;6.53;100.00
28606;BME280;46498;49.968;7.754;2023-12-29T05:30:59;-18486.00;;;6.55;100.00
28606;BME280;46498;49.968;7.754;2023-12-29T05:36:09;-18488.00;;;6.59;100.00
28606;BME280;46498;49.968;7.754;2023-12-29T05:41:13;-18488.00;;;6.61;100.00
28606;BME280;46498;49.968;7.754;2023-12-29T05:46:14;-18488.00;;;6.60;100.00
28606;BME280;46498;49.968;7.754;2023-12-29T05:51:15;-18488.00;;;6.61;100.00
28606;BME280;46498;49.968;7.754;2023-12-29T05:56:16;-18490.00;;;6.66;100.00
28606;BME280;46498;49.968;7.754;2023-12-29T06:01:17;-18490.00;;;6.67;100.00
28606;BME280;46498;49.968;7.754;2023-12-29T06:06:18;-18492.00;;;6.72;100.00
28606;BME280;46498;49.968;7.754;2023-12-29T06:11:19;-18491.00;;;6.71;100.00
28606;BME280;46498;49.968;7.754;2023-12-29T06:16:21;-18495.00;;;6.83;100.00
28606;BME280;46498;49.968;7.754;2023-12-29T06:21:22;-18495.00;;;6.81;100.00
28606;BME280;46498;49.968;7.754;2023-12-29T06:26:23;-18497.00;;;6.89;100.00
28606;BME280;46498;49.968;7.754;2023-12-29T06:31:24;-18500.00;;;6.97;100.00
28606;BME280;46498;49.968;7.754;2023-12-29T06:36:25;-18498.00;;;6.92;100.00
28606;BME280;46498;49.968;7.754;2023-12-29T06:41:26;-18501.00;;;7.01;100.00
28606;BME280;46498;49.968;7.754;2023-12-29T06:46:27;-18500.00;;;6.98;100.00
28606;BME280;46498;49.968;7.754;2023-12-29T06:51:28;-18501.00;;;7.02;100.00
28606;BME280;46498;49.968;7.754;2023-12-29T06:56:29;-18504.00;;;7.10;100.00
28606;BME280;46498;49.968;7.754;2023-12-29T07:01:30;-18504.00;;;7.11;100.00
28606;BME280;46498;49.968;7.754;2023-12-29T07:06:31;-18504.00;;;7.10;100.00
28606;BME280;46498;49.968;7.754;2023-12-29T07:11:32;-18507.00;;;7.19;100.00
28606;BME280;46498;49.968;7.754;2023-12-29T07:16:33;-18505.00;;;7.12;100.00
28606;BME280;46498;49.968;7.754;2023-12-29T07:21:34;-18506.00;;;7.18;100.00
28606;BME280;46498;49.968;7.754;2023-12-29T07:26:36;-18507.00;;;7.20;100.00
28606;BME280;46498;49.968;7.754;2023-12-29T07:31:39;-18506.00;;;7.17;100.00
28606;BME280;46498;49.968;7.754;2023-12-29T07:36:40;-18506.00;;;7.16;100.00
28606;BME280;46498;49.968;7.754;2023-12-29T07:41:42;-18503.00;;;7.09;100.00
28606;BME280;46498;49.968;7.754;2023-12-29T07:46:43;-18502.00;;;7.04;100.00
28606;BME280;46498;49.968;7.754;2023-12-29T07:51:48;-18500.00;;;6.97;100.00
28606;BME280;46498;49.968;7.754;2023-12-29T07:56:50;-18499.00;;;6.95;100.00
28606;BME280;46498;49.968;7.754;2023-12-29T08:01:51;-18500.00;;;6.98;100.00
28606;BME280;46498;49.968;7.754;2023-12-29T08:06:52;-18501.00;;;6.99;100.00
28606;BME280;46498;49.968;7.754;2023-12-29T08:11:53;-18499.00;;;6.93;100.00
28606;BME280;46498;49.968;7.754;2023-12-29T08:16:54;-18501.00;;;7.00;100.00
28606;BME280;46498;49.968;7.754;2023-12-29T08:21:57;-18503.00;;;7.08;100.00
28606;BME280;46498;49.968;7.754;2023-12-29T08:26:58;-18505.00;;;7.14;100.00
28606;BME280;46498;49.968;7.754;2023-12-29T08:31:59;-18506.00;;;7.18;100.00
28606;BME280;46498;49.968;7.754;2023-12-29T08:37:02;-18507.00;;;7.19;100.00
28606;BME280;46498;49.968;7.754;2023-12-29T08:42:04;-18508.00;;;7.24;100.00
28606;BME280;46498;49.968;7.754;2023-12-29T08:47:05;-18511.00;;;7.33;100.00
28606;BME280;46498;49.968;7.754;2023-12-29T08:52:08;-18511.00;;;7.32;100.00
28606;BME280;46498;49.968;7.754;2023-12-29T08:57:09;-18513.00;;;7.38;100.00
28606;BME280;46498;49.968;7.754;2023-12-29T09:02:11;-18514.00;;;7.43;100.00
28606;BME280;46498;49.968;7.754;2023-12-29T09:07:12;-18517.00;;;7.52;100.00
28606;BME280;46498;49.968;7.754;2023-12-29T09:12:13;-18520.00;;;7.59;100.00
28606;BME280;46498;49.968;7.754;2023-12-29T09:17:14;-18521.00;;;7.63;100.00
28606;BME280;46498;49.968;7.754;2023-12-29T09:22:15;-18521.00;;;7.63;100.00
28606;BME280;46498;49.968;7.754;2023-12-29T09:27:16;-18522.00;;;7.68;100.00
28606;BME280;46498;49.968;7.754;2023-12-29T09:32:18;-18523.00;;;7.70;100.00
28606;BME280;46498;49.968;7.754;2023-12-29T09:37:19;-18522.00;;;7.66;100.00
28606;BME280;46498;49.968;7.754;2023-12-29T09:42:21;-18521.00;;;7.65;100.00
28606;BME280;46498;49.968;7.754;2023-12-29T09:47:26;-18522.00;;;7.67;100.00
28606;BME280;46498;49.968;7.754;2023-12-29T09:52:27;-18522.00;;;7.65;100.00
28606;BME280;46498;49.968;7.754;2023-12-29T09:57:28;-18522.00;;;7.67;100.00
28606;BME280;46498;49.968;7.754;2023-12-29T10:02:29;-18523.00;;;7.69;100.00
28606;BME280;46498;49.968;7.754;2023-12-29T10:07:38;-18524.00;;;7.73;100.00
28606;BME280;46498;49.968;7.754;2023-12-29T10:12:41;-18523.00;;;7.71;100.00
28606;BME280;46498;49.968;7.754;2023-12-29T10:18:22;-18524.00;;;7.74;100.00
28606;BME280;46498;49.968;7.754;2023-12-29T10:23:42;-18523.00;;;7.70;100.00
28606;BME280;46498;49.968;7.754;2023-12-29T10:28:48;-18525.00;;;7.75;100.00
28606;BME280;46498;49.968;7.754;2023-12-29T10:33:51;-18526.00;;;7.79;100.00
28606;BME280;46498;49.968;7.754;2023-12-29T10:39:06;-18526.00;;;7.80;100.00
28606;BME280;46498;49.968;7.754;2023-12-29T10:44:08;-18523.00;;;7.71;100.00
28606;BME280;46498;49.968;7.754;2023-12-29T10:49:11;-18524.00;;;7.72;100.00
28606;BME280;46498;49.968;7.754;2023-12-29T10:54:20;-18525.00;;;7.76;100.00
28606;BME280;46498;49.968;7.754;2023-12-29T10:59:24;-18526.00;;;7.78;100.00
28606;BME280;46498;49.968;7.754;2023-12-29T11:04:25;-18525.00;;;7.77;100.00
28606;BME280;46498;49.968;7.754;2023-12-29T11:09:30;-18527.00;;;7.83;100.00
28606;BME280;46498;49.968;7.754;2023-12-29T11:14:32;-18525.00;;;7.77;100.00
28606;BME280;46498;49.968;7.754;2023-12-29T11:19:33;-18528.00;;;7.85;100.00
28606;BME280;46498;49.968;7.754;2023-12-29T11:24:34;-18526.00;;;7.79;100.00
28606;BME280;46498;49.968;7.754;2023-12-29T11:29:45;-18525.00;;;7.77;100.00
28606;BME280;46498;49.968;7.754;2023-12-29T11:34:53;-18523.00;;;7.69;100.00
28606;BME280;46498;49.968;7.754;2023-12-29T11:40:19;-18522.00;;;7.67;100.00
28606;BME280;46498;49.968;7.754;2023-12-29T11:45:28;-18523.00;;;7.69;100.00
28606;BME280;46498;49.968;7.754;2023-12-29T11:50:31;-18523.00;;;7.71;100.00
28606;BME280;46498;49.968;7.754;2023-12-29T11:55:37;-18525.00;;;7.75;100.00
28606;BME280;46498;49.968;7.754;2023-12-29T12:00:43;-18525.00;;;7.77;100.00
28606;BME280;46498;49.968;7.754;2023-12-29T12:05:46;-18529.00;;;7.89;100.00
28606;BME280;46498;49.968;7.754;2023-12-29T12:10:48;-18527.00;;;7.83;100.00
28606;BME280;46498;49.968;7.754;2023-12-29T12:15:49;-18525.00;;;7.77;100.00
28606;BME280;46498;49.968;7.754;2023-12-29T12:20:50;-18526.00;;;7.78;100.00
28606;BME280;46498;49.968;7.754;2023-12-29T12:25:57;-18528.00;;;7.87;100.00
28606;BME280;46498;49.968;7.754;2023-12-29T12:31:07;-18530.00;;;7.90;100.00
28606;BME280;46498;49.968;7.754;2023-12-29T12:36:09;-18531.00;;;7.94;100.00
28606;BME280;46498;49.968;7.754;2023-12-29T12:41:11;-18534.00;;;8.03;100.00
28606;BME280;46498;49.968;7.754;2023-12-29T12:46:22;-18533.00;;;8.03;100.00
28606;BME280;46498;49.968;7.754;2023-12-29T12:51:25;-18535.00;;;8.07;100.00
28606;BME280;46498;49.968;7.754;2023-12-29T12:56:27;-18536.00;;;8.11;100.00
28606;BME280;46498;49.968;7.754;2023-12-29T13:01:34;-18536.00;;;8.11;100.00
28606;BME280;46498;49.968;7.754;2023-12-29T13:06:41;-18533.00;;;8.02;100.00
28606;BME280;46498;49.968;7.754;2023-12-29T13:11:42;-18534.00;;;8.06;100.00
28606;BME280;46498;49.968;7.754;2023-12-29T13:16:44;-18536.00;;;8.10;100.00
28606;BME280;46498;49.968;7.754;2023-12-29T13:21:53;-18539.00;;;8.21;100.00
28606;BME280;46498;49.968;7.754;2023-12-29T13:27:04;-18541.00;;;8.26;100.00
28606;BME280;46498;49.968;7.754;2023-12-29T13:32:16;-18541.00;;;8.27;100.00
28606;BME280;46498;49.968;7.754;2023-12-29T13:37:36;-18543.00;;;8.33;100.00
28606;BME280;46498;49.968;7.754;2023-12-29T13:42:41;-18543.00;;;8.34;100.00
28606;BME280;46498;49.968;7.754;2023-12-29T13:47:45;-18538.00;;;8.18;100.00
28606;BME280;46498;49.968;7.754;2023-12-29T13:52:47;-18537.00;;;8.15;100.00
28606;BME280;46498;49.968;7.754;2023-12-29T13:57:48;-18536.00;;;8.10;100.00
28606;BME280;46498;49.968;7.754;2023-12-29T14:03:05;-18535.00;;;8.08;100.00
28606;BME280;46498;49.968;7.754;2023-12-29T14:08:10;-18533.00;;;8.02;100.00
28606;BME280;46498;49.968;7.754;2023-12-29T14:13:20;-18534.00;;;8.05;100.00
28606;BME280;46498;49.968;7.754;2023-12-29T14:19:06;-18532.00;;;7.97;100.00
28606;BME280;46498;49.968;7.754;2023-12-29T14:24:14;-18529.00;;;7.87;100.00
28606;BME280;46498;49.968;7.754;2023-12-29T14:29:15;-18528.00;;;7.85;100.00
28606;BME280;46498;49.968;7.754;2023-12-29T14:34:16;-18529.00;;;7.89;100.00
28606;BME280;46498;49.968;7.754;2023-12-29T14:39:18;-18527.00;;;7.84;100.00
28606;BME280;46498;49.968;7.754;2023-12-29T14:44:19;-18528.00;;;7.86;100.00
28606;BME280;46498;49.968;7.754;2023-12-29T14:49:20;-18528.00;;;7.86;100.00
28606;BME280;46498;49.968;7.754;2023-12-29T14:54:21;-18526.00;;;7.80;100.00
28606;BME280;46498;49.968;7.754;2023-12-29T14:59:22;-18525.00;;;7.76;100.00
28606;BME280;46498;49.968;7.754;2023-12-29T15:04:23;-18524.00;;;7.72;100.00
28606;BME280;46498;49.968;7.754;2023-12-29T15:09:24;-18522.00;;;7.66;100.00
28606;BME280;46498;49.968;7.754;2023-12-29T15:14:25;-18516.00;;;7.49;100.00
28606;BME280;46498;49.968;7.754;2023-12-29T15:19:26;-18514.00;;;7.41;100.00
28606;BME280;46498;49.968;7.754;2023-12-29T15:24:27;-18514.00;;;7.42;100.00
28606;BME280;46498;49.968;7.754;2023-12-29T15:29:28;-18514.00;;;7.41;100.00
28606;BME280;46498;49.968;7.754;2023-12-29T15:34:32;-18514.00;;;7.41;100.00
28606;BME280;46498;49.968;7.754;2023-12-29T15:39:33;-18513.00;;;7.39;100.00
28606;BME280;46498;49.968;7.754;2023-12-29T15:44:34;-18512.00;;;7.34;100.00
28606;BME280;46498;49.968;7.754;2023-12-29T15:49:38;-18505.00;;;7.14;100.00
28606;BME280;46498;49.968;7.754;2023-12-29T15:54:39;-18503.00;;;7.09;100.00
28606;BME280;46498;49.968;7.754;2023-12-29T15:59:40;-18502.00;;;7.03;100.00
28606;BME280;46498;49.968;7.754;2023-12-29T16:04:41;-18501.00;;;7.00;100.00
28606;BME280;46498;49.968;7.754;2023-12-29T16:09:42;-18503.00;;;7.07;100.00
28606;BME280;46498;49.968;7.754;2023-12-29T16:14:43;-18503.00;;;7.07;100.00
28606;BME280;46498;49.968;7.754;2023-12-29T16:19:44;-18502.00;;;7.05;100.00
28606;BME280;46498;49.968;7.754;2023-12-29T16:24:47;-18502.00;;;7.03;100.00
28606;BME280;46498;49.968;7.754;2023-12-29T16:29:51;-18502.00;;;7.04;100.00
28606;BME280;46498;49.968;7.754;2023-12-29T16:34:53;-18502.00;;;7.05;100.00
28606;BME280;46498;49.968;7.754;2023-12-29T16:39:55;-18502.00;;;7.04;100.00
28606;BME280;46498;49.968;7.754;2023-12-29T16:44:59;-18504.00;;;7.10;100.00
28606;BME280;46498;49.968;7.754;2023-12-29T16:50:00;-18505.00;;;7.15;100.00
28606;BME280;46498;49.968;7.754;2023-12-29T16:55:01;-18505.00;;;7.14;100.00
28606;BME280;46498;49.968;7.754;2023-12-29T17:00:02;-18505.00;;;7.13;100.00
28606;BME280;46498;49.968;7.754;2023-12-29T17:05:04;-18505.00;;;7.14;100.00
28606;BME280;46498;49.968;7.754;2023-12-29T17:10:06;-18506.00;;;7.16;100.00
28606;BME280;46498;49.968;7.754;2023-12-29T17:15:08;-18505.00;;;7.15;100.00
28606;BME280;46498;49.968;7.754;2023-12-29T17:20:09;-18505.00;;;7.12;100.00
28606;BME280;46498;49.968;7.754;2023-12-29T17:25:10;-18505.00;;;7.14;100.00
28606;BME280;46498;49.968;7.754;2023-12-29T17:30:12;-18503.00;;;7.09;100.00
28606;BME280;46498;49.968;7.754;2023-12-29T17:35:14;-18504.00;;;7.12;100.00
28606;BME280;46498;49.968;7.754;2023-12-29T17:40:14;-18503.00;;;7.09;100.00
28606;BME280;46498;49.968;7.754;2023-12-29T17:45:16;-18505.00;;;7.15;100.00
28606;BME280;46498;49.968;7.754;2023-12-29T17:50:17;-18504.00;;;7.11;100.00
28606;BME280;46498;49.968;7.754;2023-12-29T17:55:18;-18506.00;;;7.17;100.00
28606;BME280;46498;49.968;7.754;2023-12-29T18:00:20;-18505.00;;;7.14;100.00
28606;BME280;46498;49.968;7.754;2023-12-29T18:05:21;-18505.00;;;7.13;100.00
28606;BME280;46498;49.968;7.754;2023-12-29T18:10:22;-18506.00;;;7.16;100.00
28606;BME280;46498;49.968;7.754;2023-12-29T18:15:23;-18505.00;;;7.14;100.00
28606;BME280;46498;49.968;7.754;2023-12-29T18:20:25;-18505.00;;;7.13;100.00
28606;BME280;46498;49.968;7.754;2023-12-29T18:25:28;-18507.00;;;7.20;100.00
28606;BME280;46498;49.968;7.754;2023-12-29T18:30:31;-18506.00;;;7.15;100.00
28606;BME280;46498;49.968;7.754;2023-12-29T18:35:32;-18505.00;;;7.13;100.00
28606;BME280;46498;49.968;7.754;2023-12-29T18:40:34;-18500.00;;;6.97;100.00
28606;BME280;46498;49.968;7.754;2023-12-29T18:45:35;-18497.00;;;6.89;100.00
28606;BME280;46498;49.968;7.754;2023-12-29T18:50:36;-18496.00;;;6.85;100.00
28606;BME280;46498;49.968;7.754;2023-12-29T18:55:37;-18496.00;;;6.86;100.00
28606;BME280;46498;49.968;7.754;2023-12-29T19:00:44;-18497.00;;;6.88;100.00
28606;BME280;46498;49.968;7.754;2023-12-29T19:05:46;-18498.00;;;6.92;100.00
28606;BME280;46498;49.968;7.754;2023-12-29T19:10:48;-18497.00;;;6.88;100.00
28606;BME280;46498;49.968;7.754;2023-12-29T19:15:49;-18499.00;;;6.95;100.00
28606;BME280;46498;49.968;7.754;2023-12-29T19:20:50;-18500.00;;;6.98;100.00
28606;BME280;46498;49.968;7.754;2023-12-29T19:25:51;-18499.00;;;6.96;100.00
28606;BME280;46498;49.968;7.754;2023-12-29T19:30:52;-18501.00;;;6.99;100.00
28606;BME280;46498;49.968;7.754;2023-12-29T19:35:53;-18499.00;;;6.95;100.00
28606;BME280;46498;49.968;7.754;2023-12-29T19:40:55;-18499.00;;;6.95;100.00
28606;BME280;46498;49.968;7.754;2023-12-29T19:45:56;-18497.00;;;6.90;100.00
28606;BME280;46498;49.968;7.754;2023-12-29T19:50:57;-18498.00;;;6.92;100.00
28606;BME280;46498;49.968;7.754;2023-12-29T19:56:01;-18499.00;;;6.94;100.00
28606;BME280;46498;49.968;7.754;2023-12-29T20:01:04;-18499.00;;;6.95;100.00
28606;BME280;46498;49.968;7.754;2023-12-29T20:06:05;-18499.00;;;6.96;100.00
28606;BME280;46498;49.968;7.754;2023-12-29T20:11:06;-18498.00;;;6.91;100.00
28606;BME280;46498;49.968;7.754;2023-12-29T20:16:08;-18499.00;;;6.93;100.00
28606;BME280;46498;49.968;7.754;2023-12-29T20:21:09;-18499.00;;;6.94;100.00
28606;BME280;46498;49.968;7.754;2023-12-29T20:26:21;-18497.00;;;6.87;100.00
28606;BME280;46498;49.968;7.754;2023-12-29T20:31:23;-18496.00;;;6.86;100.00
28606;BME280;46498;49.968;7.754;2023-12-29T20:36:25;-18499.00;;;6.93;100.00
28606;BME280;46498;49.968;7.754;2023-12-29T20:41:27;-18497.00;;;6.87;100.00
28606;BME280;46498;49.968;7.754;2023-12-29T20:46:28;-18497.00;;;6.89;100.00
28606;BME280;46498;49.968;7.754;2023-12-29T20:51:29;-18498.00;;;6.92;100.00
28606;BME280;46498;49.968;7.754;2023-12-29T20:56:31;-18499.00;;;6.96;100.00
28606;BME280;46498;49.968;7.754;2023-12-29T21:01:31;-18498.00;;;6.92;100.00
28606;BME280;46498;49.968;7.754;2023-12-29T21:06:33;-18501.00;;;6.99;100.00
28606;BME280;46498;49.968;7.754;2023-12-29T21:11:34;-18502.00;;;7.04;100.00
28606;BME280;46498;49.968;7.754;2023-12-29T21:16:35;-18502.00;;;7.05;100.00
28606;BME280;46498;49.968;7.754;2023-12-29T21:21:37;-18502.00;;;7.03;100.00
28606;BME280;46498;49.968;7.754;2023-12-29T21:26:38;-18501.00;;;7.02;100.00
28606;BME280;46498;49.968;7.754;2023-12-29T21:31:40;-18500.00;;;6.96;100.00
28606;BME280;46498;49.968;7.754;2023-12-29T21:36:41;-18499.00;;;6.94;100.00
28606;BME280;46498;49.968;7.754;2023-12-29T21:41:42;-18499.00;;;6.94;100.00
28606;BME280;46498;49.968;7.754;2023-12-29T21:46:43;-18500.00;;;6.98;100.00
28606;BME280;46498;49.968;7.754;2023-12-29T21:51:45;-18501.00;;;7.02;100.00
28606;BME280;46498;49.968;7.754;2023-12-29T21:56:46;-18503.00;;;7.09;100.00
28606;BME280;46498;49.968;7.754;2023-12-29T22:01:47;-18502.00;;;7.04;100.00
28606;BME280;46498;49.968;7.754;2023-12-29T22:06:48;-18500.00;;;6.98;100.00
28606;BME280;46498;49.968;7.754;2023-12-29T22:11:49;-18499.00;;;6.95;100.00
28606;BME280;46498;49.968;7.754;2023-12-29T22:16:50;-18498.00;;;6.91;100.00
28606;BME280;46498;49.968;7.754;2023-12-29T22:21:51;-18498.00;;;6.90;100.00
28606;BME280;46498;49.968;7.754;2023-12-29T22:26:53;-18495.00;;;6.83;100.00
28606;BME280;46498;49.968;7.754;2023-12-29T22:31:54;-18495.00;;;6.82;100.00
28606;BME280;46498;49.968;7.754;2023-12-29T22:36:55;-18493.00;;;6.76;100.00
28606;BME280;46498;49.968;7.754;2023-12-29T22:41:57;-18494.00;;;6.78;100.00
28606;BME280;46498;49.968;7.754;2023-12-29T22:46:58;-18495.00;;;6.83;100.00
28606;BME280;46498;49.968;7.754;2023-12-29T22:51:59;-18492.00;;;6.74;100.00
28606;BME280;46498;49.968;7.754;2023-12-29T22:57:00;-18493.00;;;6.76;100.00
28606;BME280;46498;49.968;7.754;2023-12-29T23:02:02;-18498.00;;;6.91;100.00
28606;BME280;46498;49.968;7.754;2023-12-29T23:07:04;-18499.00;;;6.93;100.00
28606;BME280;46498;49.968;7.754;2023-12-29T23:12:06;-18502.00;;;7.03;100.00
28606;BME280;46498;49.968;7.754;2023-12-29T23:17:10;-18502.00;;;7.04;100.00
28606;BME280;46498;49.968;7.754;2023-12-29T23:22:11;-18503.00;;;7.07;100.00
28606;BME280;46498;49.968;7.754;2023-12-29T23:27:13;-18504.00;;;7.09;100.00
28606;BME280;46498;49.968;7.754;2023-12-29T23:32:15;-18503.00;;;7.07;100.00
28606;BME280;46498;49.968;7.754;2023-12-29T23:37:20;-18500.00;;;6.96;100.00
28606;BME280;46498;49.968;7.754;2023-12-29T23:42:21;-18501.00;;;7.00;100.00
28606;BME280;46498;49.968;7.754;2023-12-29T23:47:22;-18499.00;;;6.96;100.00
28606;BME280;46498;49.968;7.754;2023-12-29T23:52:23;-18501.00;;;7.00;100.00
28606;BME280;46498;49.968;7.754;2023-12-29T23:57:24;-18497.00;;;6.89;100.00
